createdAt,value
2023-02-15T00:01:14.054Z,17.30
2023-02-15T00:03:42.471Z,17.00
2023-02-15T00:06:10.967Z,18.50
2023-02-15T00:08:39.346Z,18.10
2023-02-15T00:11:08.534Z,17.53
2023-02-15T00:13:39.446Z,18.13
2023-02-15T00:16:09.621Z,16.63
2023-02-15T00:18:39.972Z,17.00
2023-02-15T00:21:09.833Z,18.13
2023-02-15T00:23:38.645Z,17.27
2023-02-15T00:26:08.371Z,18.60
2023-02-15T00:28:37.275Z,18.57
2023-02-15T00:31:07.548Z,18.57
2023-02-15T00:33:39.598Z,16.13
2023-02-15T00:36:09.457Z,16.87
2023-02-15T00:38:38.678Z,16.43
2023-02-15T00:41:08.832Z,19.03
2023-02-15T00:43:38.245Z,18.50
2023-02-15T00:46:07.940Z,17.27
2023-02-15T00:48:36.279Z,19.10
2023-02-15T00:51:07.375Z,18.90
2023-02-15T00:53:36.081Z,17.00
2023-02-15T00:56:04.748Z,17.30
2023-02-15T00:58:33.659Z,19.40
2023-02-15T01:01:07.388Z,19.00
2023-02-15T01:03:36.412Z,19.03
2023-02-15T01:06:08.207Z,18.80
2023-02-15T01:08:37.035Z,18.93
2023-02-15T01:11:07.111Z,20.27
2023-02-15T01:13:35.873Z,19.37
2023-02-15T01:16:05.561Z,18.50
2023-02-15T01:18:34.910Z,20.00
2023-02-15T01:21:14.744Z,18.30
2023-02-15T01:23:45.986Z,20.33
2023-02-15T01:26:15.137Z,19.93
2023-02-15T01:28:45.706Z,17.90
2023-02-15T01:31:15.995Z,20.07
2023-02-15T01:33:47.042Z,19.90
2023-02-15T01:36:18.405Z,18.60
2023-02-15T01:38:47.378Z,20.67
2023-02-15T01:41:23.956Z,18.43
2023-02-15T01:43:55.164Z,20.87
2023-02-15T01:46:29.815Z,20.20
2023-02-15T01:49:04.541Z,17.87
2023-02-15T01:51:38.349Z,19.07
2023-02-15T01:54:13.683Z,19.90
2023-02-15T01:56:43.002Z,19.27
2023-02-15T01:59:16.989Z,18.83
2023-02-15T02:01:46.287Z,18.07
2023-02-15T02:04:19.605Z,17.70
2023-02-15T02:06:51.319Z,18.90
2023-02-15T02:09:19.738Z,20.47
2023-02-15T02:11:49.714Z,19.40
2023-02-15T02:14:19.515Z,18.53
2023-02-15T02:16:59.663Z,19.77
2023-02-15T02:20:01.844Z,20.50
2023-02-15T02:23:14.111Z,18.97
2023-02-15T02:26:24.521Z,19.87
2023-02-15T02:29:22.814Z,19.33
2023-02-15T02:32:23.314Z,20.63
2023-02-15T02:34:57.476Z,19.70
2023-02-15T02:37:30.506Z,18.80
2023-02-15T02:40:06.049Z,20.03
2023-02-15T02:42:41.254Z,19.53
2023-02-15T02:45:16.367Z,18.80
2023-02-15T02:47:49.645Z,18.47
2023-02-15T02:50:23.924Z,20.20
2023-02-15T02:52:54.144Z,19.20
2023-02-15T02:55:26.124Z,18.70
2023-02-15T02:57:57.721Z,18.60
2023-02-15T03:00:29.237Z,18.40
2023-02-15T03:03:06.000Z,19.60
2023-02-15T03:05:40.928Z,19.40
2023-02-15T03:08:11.307Z,19.60
2023-02-15T03:10:43.508Z,19.43
2023-02-15T03:13:12.479Z,19.93
2023-02-15T03:16:04.944Z,18.90
2023-02-15T03:18:37.943Z,18.67
2023-02-15T03:21:10.696Z,19.43
2023-02-15T03:23:41.870Z,20.00
2023-02-15T03:26:12.167Z,20.47
2023-02-15T03:28:45.577Z,19.07
2023-02-15T03:31:17.287Z,19.37
2023-02-15T03:33:52.244Z,19.57
2023-02-15T03:36:25.461Z,19.17
2023-02-15T03:39:00.916Z,18.37
2023-02-15T03:41:34.473Z,17.97
2023-02-15T03:44:07.441Z,20.50
2023-02-15T03:46:42.482Z,18.33
2023-02-15T03:49:14.510Z,19.03
2023-02-15T03:51:48.146Z,19.83
2023-02-15T03:54:39.430Z,19.63
2023-02-15T03:57:29.627Z,20.63
2023-02-15T04:00:16.122Z,21.20
2023-02-15T04:03:01.243Z,19.50
2023-02-15T04:05:29.623Z,19.20
2023-02-15T04:07:59.278Z,19.83
2023-02-15T04:10:53.344Z,18.80
2023-02-15T04:13:22.806Z,19.23
2023-02-15T04:16:06.835Z,18.20
2023-02-15T04:18:56.342Z,17.57
2023-02-15T04:21:44.560Z,19.07
2023-02-15T04:24:33.962Z,19.67
2023-02-15T04:27:04.190Z,19.80
2023-02-15T04:29:34.949Z,19.23
2023-02-15T04:32:04.287Z,18.80
2023-02-15T04:34:35.083Z,20.23
2023-02-15T04:37:06.187Z,19.77
2023-02-15T04:39:38.321Z,19.47
2023-02-15T04:42:09.934Z,19.23
2023-02-15T04:44:44.448Z,17.40
2023-02-15T04:47:21.399Z,17.83
2023-02-15T04:49:58.174Z,17.73
2023-02-15T04:52:32.034Z,26.00
2023-02-15T04:55:13.277Z,62.90
2023-02-15T04:57:42.630Z,47.73
2023-02-15T05:00:16.787Z,56.60
2023-02-15T05:02:50.142Z,43.90
2023-02-15T05:05:23.738Z,25.20
2023-02-15T05:07:57.867Z,21.50
2023-02-15T05:10:30.108Z,21.67
2023-02-15T05:13:00.754Z,18.77
2023-02-15T05:15:38.287Z,18.10
2023-02-15T05:18:09.900Z,18.57
2023-02-15T05:20:41.414Z,19.20
2023-02-15T05:23:17.629Z,17.73
2023-02-15T05:26:18.358Z,19.13
2023-02-15T05:28:49.748Z,17.50
2023-02-15T05:31:20.474Z,16.90
2023-02-15T05:33:48.983Z,16.63
2023-02-15T05:36:17.407Z,18.40
2023-02-15T05:38:45.836Z,17.70
2023-02-15T05:41:16.122Z,18.50
2023-02-15T05:43:44.653Z,19.17
2023-02-15T05:46:13.887Z,17.40
2023-02-15T05:48:42.296Z,17.53
2023-02-15T05:51:13.923Z,16.63
2023-02-15T05:53:42.685Z,46.77
2023-02-15T05:56:12.103Z,40.73
2023-02-15T05:58:43.341Z,25.43
2023-02-15T06:01:11.843Z,20.77
2023-02-15T06:03:40.830Z,19.40
2023-02-15T06:06:09.830Z,17.80
2023-02-15T06:08:39.476Z,16.90
2023-02-15T06:11:08.198Z,16.80
2023-02-15T06:13:38.782Z,17.63
2023-02-15T06:16:11.912Z,18.43
2023-02-15T06:18:40.194Z,16.43
2023-02-15T06:21:08.568Z,18.33
2023-02-15T06:23:36.838Z,17.60
2023-02-15T06:26:05.247Z,17.60
2023-02-15T06:28:33.693Z,19.30
2023-02-15T06:31:02.127Z,16.40
2023-02-15T06:33:34.781Z,17.60
2023-02-15T06:36:04.772Z,17.57
2023-02-15T06:38:33.552Z,17.37
2023-02-15T06:41:01.875Z,17.57
2023-02-15T06:43:30.226Z,18.20
2023-02-15T06:46:01.734Z,16.70
2023-02-15T06:48:31.701Z,16.50
2023-02-15T06:51:00.121Z,17.40
2023-02-15T06:53:28.478Z,15.73
2023-02-15T06:56:03.881Z,17.33
2023-02-15T06:58:32.520Z,16.93
2023-02-15T07:01:00.852Z,17.07
2023-02-15T07:03:29.194Z,17.30
2023-02-15T07:06:00.239Z,15.90
2023-02-15T07:08:30.121Z,15.40
2023-02-15T07:11:19.553Z,17.43
2023-02-15T07:13:47.531Z,48.90
2023-02-15T07:16:15.939Z,73.53
2023-02-15T07:18:44.409Z,37.27
2023-02-15T07:21:14.121Z,24.00
2023-02-15T07:23:42.601Z,19.00
2023-02-15T07:26:11.356Z,17.93
2023-02-15T07:28:39.909Z,16.77
2023-02-15T07:31:08.659Z,15.63
2023-02-15T07:33:37.288Z,15.10
2023-02-15T07:36:06.893Z,15.67
2023-02-15T07:38:38.095Z,14.67
2023-02-15T07:41:08.762Z,15.73
2023-02-15T07:43:39.163Z,15.93
2023-02-15T07:46:09.880Z,15.60
2023-02-15T07:48:38.425Z,60.40
2023-02-15T07:51:09.780Z,68.03
2023-02-15T07:53:40.688Z,34.43
2023-02-15T07:56:12.239Z,24.03
2023-02-15T07:58:53.330Z,18.17
2023-02-15T08:01:23.787Z,16.10
2023-02-15T08:03:52.704Z,15.63
2023-02-15T08:06:21.975Z,15.47
2023-02-15T08:08:52.274Z,15.40
2023-02-15T08:11:30.222Z,16.30
2023-02-15T08:14:01.284Z,15.23
2023-02-15T08:16:32.381Z,14.10
2023-02-15T08:19:02.234Z,15.10
2023-02-15T08:21:31.956Z,16.20
2023-02-15T08:24:02.182Z,15.47
2023-02-15T08:26:31.762Z,15.43
2023-02-15T08:29:01.157Z,14.60
2023-02-15T08:31:30.805Z,15.50
2023-02-15T08:33:59.668Z,14.93
2023-02-15T08:36:30.483Z,15.37
2023-02-15T08:39:02.478Z,14.57
2023-02-15T08:41:33.019Z,76.27
2023-02-15T08:44:03.104Z,26.80
2023-02-15T08:46:34.514Z,20.30
2023-02-15T08:49:03.436Z,16.93
2023-02-15T08:51:34.874Z,16.67
2023-02-15T08:54:07.700Z,15.90
2023-02-15T08:56:38.190Z,14.00
2023-02-15T08:59:07.446Z,14.93
2023-02-15T09:01:36.874Z,13.60
2023-02-15T09:04:09.632Z,14.20
2023-02-15T09:06:39.436Z,13.97
2023-02-15T09:09:10.014Z,11.53
2023-02-15T09:11:40.559Z,12.37
2023-02-15T09:14:11.168Z,13.23
2023-02-15T09:16:40.244Z,12.93
2023-02-15T09:19:09.816Z,14.07
2023-02-15T09:21:39.857Z,13.00
2023-02-15T09:24:11.834Z,12.20
2023-02-15T09:26:42.689Z,12.80
2023-02-15T09:29:13.004Z,13.87
2023-02-15T09:31:45.326Z,13.47
2023-02-15T09:34:14.816Z,14.40
2023-02-15T09:36:43.504Z,14.37
2023-02-15T09:39:15.314Z,13.40
2023-02-15T09:42:28.797Z,13.10
2023-02-15T09:45:19.043Z,14.80
2023-02-15T09:48:28.647Z,13.70
2023-02-15T09:51:08.719Z,12.70
2023-02-15T09:54:06.553Z,11.97
2023-02-15T09:56:44.420Z,12.70
2023-02-15T09:59:25.600Z,14.90
2023-02-15T10:02:04.965Z,12.33
2023-02-15T10:04:51.078Z,13.43
2023-02-15T10:07:35.662Z,12.77
2023-02-15T10:10:15.684Z,13.20
2023-02-15T10:12:57.289Z,12.63
2023-02-15T10:15:53.103Z,13.40
2023-02-15T10:18:41.043Z,14.20
2023-02-15T10:21:22.157Z,13.73
2023-02-15T10:24:13.005Z,13.00
2023-02-15T10:26:46.397Z,12.67
2023-02-15T10:29:28.785Z,12.40
2023-02-15T10:32:07.997Z,12.77
2023-02-15T10:34:40.836Z,12.10
2023-02-15T10:37:40.526Z,11.63
2023-02-15T10:40:14.593Z,12.20
2023-02-15T10:42:59.954Z,13.70
2023-02-15T10:45:37.192Z,12.53
2023-02-15T10:48:28.853Z,12.90
2023-02-15T10:51:00.306Z,11.40
2023-02-15T10:53:50.997Z,11.73
2023-02-15T10:56:24.450Z,11.27
2023-02-15T10:59:18.124Z,11.80
2023-02-15T11:01:54.840Z,11.70
2023-02-15T11:04:50.996Z,11.13
2023-02-15T11:07:24.767Z,11.80
2023-02-15T11:09:58.124Z,10.93
2023-02-15T11:12:29.421Z,10.53
2023-02-15T11:15:02.573Z,11.40
2023-02-15T11:17:38.073Z,12.40
2023-02-15T11:20:17.682Z,11.20
2023-02-15T11:22:50.404Z,9.57
2023-02-15T11:25:23.996Z,10.63
2023-02-15T11:27:52.822Z,10.20
2023-02-15T11:30:24.068Z,10.87
2023-02-15T11:32:56.376Z,10.70
2023-02-15T11:35:30.010Z,9.90
2023-02-15T11:38:07.752Z,10.10
2023-02-15T11:40:41.912Z,10.80
2023-02-15T11:43:17.660Z,10.00
2023-02-15T11:45:47.959Z,9.17
2023-02-15T11:48:18.843Z,10.47
2023-02-15T11:50:47.663Z,9.57
2023-02-15T11:53:18.433Z,9.90
2023-02-15T11:55:49.246Z,9.23
2023-02-15T11:58:29.188Z,8.47
2023-02-15T12:01:03.586Z,9.70
2023-02-15T12:03:45.544Z,9.87
2023-02-15T12:06:21.107Z,9.00
2023-02-15T12:08:56.134Z,8.83
2023-02-15T12:11:31.310Z,8.70
2023-02-15T12:14:03.886Z,7.97
2023-02-15T12:16:41.877Z,8.50
2023-02-15T12:19:29.763Z,9.80
2023-02-15T12:22:00.741Z,8.17
2023-02-15T12:24:31.798Z,20.63
2023-02-15T12:27:06.169Z,26.77
2023-02-15T12:29:41.911Z,23.07
2023-02-15T12:32:19.274Z,19.80
2023-02-15T12:34:49.636Z,17.20
2023-02-15T12:37:21.237Z,15.53
2023-02-15T12:39:58.136Z,14.97
2023-02-15T12:42:27.561Z,12.20
2023-02-15T12:44:59.406Z,12.53
2023-02-15T12:47:29.355Z,11.03
2023-02-15T12:50:34.598Z,11.30
2023-02-15T12:53:10.348Z,9.47
2023-02-15T12:55:45.434Z,8.70
2023-02-15T12:58:19.658Z,8.60
2023-02-15T13:00:48.412Z,8.63
2023-02-15T13:03:22.694Z,9.27
2023-02-15T13:05:54.843Z,8.30
2023-02-15T13:08:29.254Z,8.50
2023-02-15T13:11:00.589Z,7.90
2023-02-15T13:13:31.496Z,7.87
2023-02-15T13:16:03.960Z,8.70
2023-02-15T13:18:36.378Z,6.90
2023-02-15T13:21:13.660Z,8.20
2023-02-15T13:23:46.563Z,7.00
2023-02-15T13:26:19.199Z,6.83
2023-02-15T13:28:49.732Z,7.50
2023-02-15T13:31:21.672Z,6.70
2023-02-15T13:33:53.894Z,7.43
2023-02-15T13:36:29.808Z,11.73
2023-02-15T13:39:11.874Z,14.50
2023-02-15T13:41:55.368Z,12.47
2023-02-15T13:44:52.284Z,11.50
2023-02-15T13:47:27.965Z,11.47
2023-02-15T13:50:15.136Z,9.93
2023-02-15T13:52:53.510Z,9.80
2023-02-15T13:55:29.651Z,9.03
2023-02-15T13:58:22.632Z,10.30
2023-02-15T14:00:59.359Z,8.87
2023-02-15T14:04:00.584Z,9.97
2023-02-15T14:06:51.147Z,7.90
2023-02-15T14:09:33.108Z,8.83
2023-02-15T14:12:20.616Z,8.27
2023-02-15T14:15:12.041Z,7.83
2023-02-15T14:17:52.168Z,8.77
2023-02-15T14:20:26.994Z,7.40
2023-02-15T14:23:08.543Z,8.90
2023-02-15T14:25:44.898Z,7.47
2023-02-15T14:28:17.555Z,6.97
2023-02-15T14:30:50.601Z,8.60
2023-02-15T14:33:35.237Z,7.53
2023-02-15T14:36:07.585Z,6.20
2023-02-15T14:38:50.962Z,6.13
2023-02-15T14:41:26.476Z,7.37
2023-02-15T14:44:03.383Z,7.10
2023-02-15T14:46:38.795Z,6.63
2023-02-15T14:49:12.415Z,5.60
2023-02-15T14:51:59.882Z,6.30
2023-02-15T14:55:07.642Z,6.63
2023-02-15T14:57:37.993Z,5.47
2023-02-15T15:00:35.517Z,7.50
2023-02-15T15:03:03.963Z,13.33
2023-02-15T15:05:37.354Z,14.00
2023-02-15T15:08:07.370Z,12.83
2023-02-15T15:10:48.319Z,12.97
2023-02-15T15:13:56.341Z,10.50
2023-02-15T15:16:49.627Z,9.17
2023-02-15T15:20:08.398Z,9.27
2023-02-15T15:22:38.470Z,11.57
2023-02-15T15:25:12.987Z,15.47
2023-02-15T15:27:46.825Z,16.17
2023-02-15T15:30:55.934Z,13.70
2023-02-15T15:33:54.133Z,11.90
2023-02-15T15:36:49.316Z,10.67
2023-02-15T15:39:33.739Z,10.10
2023-02-15T15:42:14.288Z,9.00
2023-02-15T15:45:32.510Z,9.17
2023-02-15T15:48:19.280Z,7.87
2023-02-15T15:50:49.605Z,7.93
2023-02-15T15:53:23.065Z,7.67
2023-02-15T15:55:55.279Z,8.30
2023-02-15T15:58:25.336Z,7.73
2023-02-15T16:00:56.820Z,7.30
2023-02-15T16:03:28.150Z,7.93
2023-02-15T16:06:01.109Z,7.43
2023-02-15T16:08:32.282Z,8.30
2023-02-15T16:11:01.733Z,7.77
2023-02-15T16:13:30.263Z,7.23
2023-02-15T16:15:58.848Z,7.37
2023-02-15T16:18:29.916Z,7.60
2023-02-15T16:21:01.138Z,13.27
2023-02-15T16:24:00.404Z,38.17
2023-02-15T16:26:56.799Z,35.50
2023-02-15T16:29:30.443Z,28.80
2023-02-15T16:32:04.351Z,21.50
2023-02-15T16:34:34.391Z,19.20
2023-02-15T16:37:15.764Z,16.03
2023-02-15T16:39:45.667Z,14.97
2023-02-15T16:42:15.650Z,14.57
2023-02-15T16:44:45.152Z,13.20
2023-02-15T16:47:19.728Z,12.23
2023-02-15T16:49:53.303Z,11.70
2023-02-15T16:52:25.175Z,11.37
2023-02-15T16:54:57.823Z,10.57
2023-02-15T16:57:28.802Z,11.40
2023-02-15T17:00:00.106Z,9.90
2023-02-15T17:02:54.476Z,11.30
2023-02-15T17:05:22.301Z,10.40
2023-02-15T17:08:14.212Z,10.40
2023-02-15T17:10:44.422Z,9.40
2023-02-15T17:13:13.886Z,10.87
2023-02-15T17:15:43.869Z,10.53
2023-02-15T17:18:18.773Z,12.60
2023-02-15T17:20:51.613Z,13.60
2023-02-15T17:23:27.819Z,14.30
2023-02-15T17:25:56.602Z,15.27
2023-02-15T17:28:27.384Z,16.00
2023-02-15T17:30:57.231Z,15.47
2023-02-15T17:33:30.074Z,15.83
2023-02-15T17:36:09.771Z,15.77
2023-02-15T17:38:39.719Z,14.93
2023-02-15T17:41:09.713Z,13.90
2023-02-15T17:43:38.407Z,12.60
2023-02-15T17:46:06.948Z,13.33
2023-02-15T17:48:37.426Z,12.40
2023-02-15T17:51:11.193Z,11.10
2023-02-15T17:53:39.787Z,10.93
2023-02-15T17:56:11.352Z,10.50
2023-02-15T17:58:40.384Z,9.77
2023-02-15T18:01:33.615Z,10.87
2023-02-15T18:04:19.624Z,9.67
2023-02-15T18:07:07.088Z,9.70
2023-02-15T18:09:52.881Z,11.43
2023-02-15T18:12:23.754Z,12.13
2023-02-15T18:14:54.316Z,13.00
2023-02-15T18:17:29.135Z,27.70
2023-02-15T18:19:57.805Z,32.80
2023-02-15T18:22:30.221Z,23.07
2023-02-15T18:24:58.841Z,17.90
2023-02-15T18:27:27.307Z,15.27
2023-02-15T18:29:55.665Z,14.00
2023-02-15T18:32:34.220Z,12.63
2023-02-15T18:35:03.886Z,10.83
2023-02-15T18:37:34.767Z,11.27
2023-02-15T18:40:04.407Z,11.10
2023-02-15T18:42:36.117Z,11.90
2023-02-15T18:45:16.484Z,11.90
2023-02-15T18:47:45.775Z,11.30
2023-02-15T18:50:14.669Z,11.03
2023-02-15T18:52:46.835Z,12.50
2023-02-15T18:55:19.253Z,11.37
2023-02-15T18:57:48.568Z,11.03
2023-02-15T19:00:19.651Z,10.73
2023-02-15T19:02:48.404Z,12.47
2023-02-15T19:05:18.065Z,12.80
2023-02-15T19:07:48.717Z,14.23
2023-02-15T19:10:20.548Z,14.93
2023-02-15T19:12:49.589Z,14.63
2023-02-15T19:15:19.694Z,13.23
2023-02-15T19:17:48.344Z,11.50
2023-02-15T19:20:19.365Z,11.40
2023-02-15T19:22:51.033Z,12.97
2023-02-15T19:25:23.022Z,11.80
2023-02-15T19:27:52.205Z,13.07
2023-02-15T19:30:46.416Z,12.40
2023-02-15T19:33:18.254Z,12.97
2023-02-15T19:35:52.379Z,12.17
2023-02-15T19:38:25.494Z,13.07
2023-02-15T19:40:54.236Z,13.03
2023-02-15T19:43:26.318Z,14.27
2023-02-15T19:45:55.546Z,12.53
2023-02-15T19:48:24.906Z,13.17
2023-02-15T19:50:53.820Z,11.50
2023-02-15T19:53:25.904Z,11.27
2023-02-15T19:55:54.646Z,11.70
2023-02-15T19:58:23.617Z,10.43
2023-02-15T20:00:52.931Z,12.17
2023-02-15T20:03:21.427Z,11.43
2023-02-15T20:05:49.845Z,10.70
2023-02-15T20:08:20.742Z,11.73
2023-02-15T20:10:50.922Z,12.27
2023-02-15T20:13:21.028Z,11.77
2023-02-15T20:15:51.277Z,11.20
2023-02-15T20:18:22.367Z,10.60
2023-02-15T20:20:52.977Z,11.70
2023-02-15T20:23:30.719Z,11.67
2023-02-15T20:26:18.724Z,11.20
2023-02-15T20:28:50.911Z,12.00
2023-02-15T20:31:21.899Z,15.57
2023-02-15T20:33:52.533Z,16.57
2023-02-15T20:36:25.328Z,14.53
2023-02-15T20:38:59.613Z,12.80
2023-02-15T20:41:40.191Z,12.63
2023-02-15T20:44:20.957Z,11.23
2023-02-15T20:46:54.589Z,11.83
2023-02-15T20:49:24.037Z,10.30
2023-02-15T20:51:56.268Z,11.60
2023-02-15T20:54:28.855Z,11.80
2023-02-15T20:56:59.287Z,11.73
2023-02-15T20:59:33.460Z,10.50
2023-02-15T21:02:13.188Z,11.40
2023-02-15T21:04:41.764Z,10.70
2023-02-15T21:07:21.025Z,11.97
2023-02-15T21:09:56.548Z,10.77
2023-02-15T21:12:30.820Z,11.50
2023-02-15T21:15:06.421Z,11.50
2023-02-15T21:17:36.028Z,11.03
2023-02-15T21:20:05.451Z,10.27
2023-02-15T21:22:37.535Z,10.03
2023-02-15T21:25:06.845Z,10.60
2023-02-15T21:27:39.290Z,10.83
2023-02-15T21:30:15.511Z,11.97
2023-02-15T21:32:44.620Z,11.37
2023-02-15T21:35:17.839Z,11.40
2023-02-15T21:37:51.268Z,10.50
2023-02-15T21:40:25.177Z,11.33
2023-02-15T21:43:18.667Z,11.67
2023-02-15T21:46:05.341Z,11.40
2023-02-15T21:48:36.710Z,11.90
2023-02-15T21:51:23.316Z,10.73
2023-02-15T21:53:53.333Z,11.17
2023-02-15T21:56:24.450Z,10.60
2023-02-15T21:59:00.565Z,11.70
2023-02-15T22:01:33.267Z,10.80
2023-02-15T22:04:05.453Z,10.87
2023-02-15T22:06:33.880Z,11.13
2023-02-15T22:09:05.381Z,12.17
2023-02-15T22:11:34.054Z,11.87
2023-02-15T22:14:40.769Z,11.50
2023-02-15T22:17:21.964Z,13.07
2023-02-15T22:19:54.172Z,12.40
2023-02-15T22:22:23.163Z,11.53
2023-02-15T22:24:54.408Z,10.57
2023-02-15T22:27:27.897Z,12.33
2023-02-15T22:30:03.071Z,11.67
2023-02-15T22:32:36.879Z,10.93
2023-02-15T22:35:17.047Z,12.67
2023-02-15T22:37:45.495Z,10.80
2023-02-15T22:40:18.955Z,11.77
2023-02-15T22:42:50.957Z,12.40
2023-02-15T22:45:23.067Z,11.10
2023-02-15T22:47:54.404Z,12.97
2023-02-15T22:50:25.764Z,11.83
2023-02-15T22:52:54.540Z,12.20
2023-02-15T22:55:25.788Z,12.73
2023-02-15T22:57:56.171Z,11.70
2023-02-15T23:00:28.172Z,11.67
2023-02-15T23:02:57.426Z,11.43
2023-02-15T23:05:30.341Z,12.50
2023-02-15T23:07:59.014Z,12.37
2023-02-15T23:10:27.896Z,11.70
2023-02-15T23:13:15.471Z,12.33
2023-02-15T23:15:48.773Z,12.20
2023-02-15T23:18:19.758Z,12.67
2023-02-15T23:20:50.716Z,13.30
2023-02-15T23:23:21.643Z,12.90
2023-02-15T23:25:50.032Z,11.00
2023-02-15T23:28:21.636Z,10.60
2023-02-15T23:30:51.747Z,10.63
2023-02-15T23:33:23.332Z,10.50
2023-02-15T23:35:52.273Z,11.90
2023-02-15T23:38:23.467Z,11.00
2023-02-15T23:41:12.888Z,13.33
2023-02-15T23:43:44.039Z,10.70
2023-02-15T23:46:41.363Z,11.03
2023-02-15T23:49:15.827Z,11.73
2023-02-15T23:51:45.909Z,12.50
2023-02-15T23:54:15.542Z,12.67
2023-02-15T23:56:45.743Z,12.93
2023-02-15T23:59:17.998Z,12.90
